Terminal Aerodrome Forecast
Issued by NWS Sioux Falls, SD

Home | Current Version | Previous Version | Text Only | Print | Product List | Glossary On
Versions: 1 2 3 4 5 6 7 8 9 10 11 12 13 14 15 16
324
FTUS43 KFSD 282320
TAFFSD
TAF
KFSD 282320Z 2900/2924 05007KT P6SM SKC
     FM290700 VRB03KT P6SM SCT028
     FM291700 09005KT P6SM FEW035=

USA.gov is the U.S. government's official web portal to all federal, state and local government web resources and services.